sensor_id;sensor_type;location;lat;lon;timestamp;P1;durP1;ratioP1;P2;durP2;ratioP2
6117;SDS011;3089;48.202;11.510;2022-08-21T00:01:50;3.70;;;1.17;;
6117;SDS011;3089;48.202;11.510;2022-08-21T00:04:18;3.00;;;1.30;;
6117;SDS011;3089;48.202;11.510;2022-08-21T00:06:49;4.57;;;1.43;;
6117;SDS011;3089;48.202;11.510;2022-08-21T00:09:17;3.20;;;1.17;;
6117;SDS011;3089;48.202;11.510;2022-08-21T00:11:46;3.20;;;1.27;;
6117;SDS011;3089;48.202;11.510;2022-08-21T00:14:15;2.70;;;1.10;;
6117;SDS011;3089;48.202;11.510;2022-08-21T00:16:43;3.00;;;1.03;;
6117;SDS011;3089;48.202;11.510;2022-08-21T00:19:11;3.13;;;0.97;;
6117;SDS011;3089;48.202;11.510;2022-08-21T00:21:39;3.20;;;1.13;;
6117;SDS011;3089;48.202;11.510;2022-08-21T00:24:11;2.73;;;1.00;;
6117;SDS011;3089;48.202;11.510;2022-08-21T00:26:39;2.80;;;1.40;;
6117;SDS011;3089;48.202;11.510;2022-08-21T00:29:09;2.90;;;1.20;;
6117;SDS011;3089;48.202;11.510;2022-08-21T00:31:37;6.30;;;1.33;;
6117;SDS011;3089;48.202;11.510;2022-08-21T00:34:05;2.47;;;1.00;;
6117;SDS011;3089;48.202;11.510;2022-08-21T00:36:34;3.17;;;1.20;;
6117;SDS011;3089;48.202;11.510;2022-08-21T00:39:02;3.80;;;1.10;;
6117;SDS011;3089;48.202;11.510;2022-08-21T00:41:32;5.40;;;1.17;;
6117;SDS011;3089;48.202;11.510;2022-08-21T00:44:04;4.03;;;1.20;;
6117;SDS011;3089;48.202;11.510;2022-08-21T00:46:33;3.53;;;1.37;;
6117;SDS011;3089;48.202;11.510;2022-08-21T00:49:02;2.40;;;1.00;;
6117;SDS011;3089;48.202;11.510;2022-08-21T00:51:33;2.30;;;0.90;;
6117;SDS011;3089;48.202;11.510;2022-08-21T00:54:04;3.83;;;1.13;;
6117;SDS011;3089;48.202;11.510;2022-08-21T00:56:46;4.80;;;1.10;;
6117;SDS011;3089;48.202;11.510;2022-08-21T00:59:20;2.60;;;1.10;;
6117;SDS011;3089;48.202;11.510;2022-08-21T01:01:50;2.87;;;0.90;;
6117;SDS011;3089;48.202;11.510;2022-08-21T01:04:18;3.53;;;1.13;;
6117;SDS011;3089;48.202;11.510;2022-08-21T01:06:46;2.60;;;0.90;;
6117;SDS011;3089;48.202;11.510;2022-08-21T01:09:14;4.83;;;1.00;;
6117;SDS011;3089;48.202;11.510;2022-08-21T01:11:43;2.40;;;1.00;;
6117;SDS011;3089;48.202;11.510;2022-08-21T01:14:12;5.90;;;1.33;;
6117;SDS011;3089;48.202;11.510;2022-08-21T01:16:44;2.60;;;1.00;;
6117;SDS011;3089;48.202;11.510;2022-08-21T01:19:14;2.73;;;1.07;;
6117;SDS011;3089;48.202;11.510;2022-08-21T01:21:45;2.83;;;1.13;;
6117;SDS011;3089;48.202;11.510;2022-08-21T01:24:13;2.70;;;1.20;;
6117;SDS011;3089;48.202;11.510;2022-08-21T01:26:42;2.57;;;1.00;;
6117;SDS011;3089;48.202;11.510;2022-08-21T01:29:11;2.17;;;0.77;;
6117;SDS011;3089;48.202;11.510;2022-08-21T01:31:43;2.50;;;1.10;;
6117;SDS011;3089;48.202;11.510;2022-08-21T01:34:12;2.67;;;1.10;;
6117;SDS011;3089;48.202;11.510;2022-08-21T01:36:42;5.50;;;1.30;;
6117;SDS011;3089;48.202;11.510;2022-08-21T01:39:11;3.17;;;1.10;;
6117;SDS011;3089;48.202;11.510;2022-08-21T01:41:39;2.80;;;1.03;;
6117;SDS011;3089;48.202;11.510;2022-08-21T01:44:07;2.60;;;1.20;;
6117;SDS011;3089;48.202;11.510;2022-08-21T01:46:35;2.50;;;1.00;;
6117;SDS011;3089;48.202;11.510;2022-08-21T01:49:03;3.57;;;1.10;;
6117;SDS011;3089;48.202;11.510;2022-08-21T01:51:32;2.70;;;1.20;;
6117;SDS011;3089;48.202;11.510;2022-08-21T01:54:00;2.60;;;1.10;;
6117;SDS011;3089;48.202;11.510;2022-08-21T01:56:31;2.40;;;0.90;;
6117;SDS011;3089;48.202;11.510;2022-08-21T01:59:04;4.33;;;1.10;;
6117;SDS011;3089;48.202;11.510;2022-08-21T02:01:33;2.73;;;1.00;;
6117;SDS011;3089;48.202;11.510;2022-08-21T02:04:01;3.50;;;1.03;;
6117;SDS011;3089;48.202;11.510;2022-08-21T02:06:29;3.30;;;1.20;;
6117;SDS011;3089;48.202;11.510;2022-08-21T02:08:57;2.10;;;0.80;;
6117;SDS011;3089;48.202;11.510;2022-08-21T02:11:25;4.40;;;1.10;;
6117;SDS011;3089;48.202;11.510;2022-08-21T02:13:54;2.40;;;0.87;;
6117;SDS011;3089;48.202;11.510;2022-08-21T02:16:22;3.00;;;1.20;;
6117;SDS011;3089;48.202;11.510;2022-08-21T02:18:50;2.50;;;1.10;;
6117;SDS011;3089;48.202;11.510;2022-08-21T02:21:18;4.00;;;1.20;;
6117;SDS011;3089;48.202;11.510;2022-08-21T02:23:46;2.63;;;1.00;;
6117;SDS011;3089;48.202;11.510;2022-08-21T02:26:14;2.50;;;1.00;;
6117;SDS011;3089;48.202;11.510;2022-08-21T02:28:42;3.87;;;1.13;;
6117;SDS011;3089;48.202;11.510;2022-08-21T02:31:12;2.63;;;0.80;;
6117;SDS011;3089;48.202;11.510;2022-08-21T02:33:40;2.60;;;1.10;;
6117;SDS011;3089;48.202;11.510;2022-08-21T02:36:08;2.37;;;0.93;;
6117;SDS011;3089;48.202;11.510;2022-08-21T02:38:38;2.60;;;1.03;;
6117;SDS011;3089;48.202;11.510;2022-08-21T02:41:08;3.47;;;0.97;;
6117;SDS011;3089;48.202;11.510;2022-08-21T02:43:37;2.60;;;1.00;;
6117;SDS011;3089;48.202;11.510;2022-08-21T02:46:06;2.33;;;0.90;;
6117;SDS011;3089;48.202;11.510;2022-08-21T02:48:37;4.93;;;1.17;;
6117;SDS011;3089;48.202;11.510;2022-08-21T02:51:08;2.30;;;0.83;;
6117;SDS011;3089;48.202;11.510;2022-08-21T02:53:37;4.73;;;0.90;;
6117;SDS011;3089;48.202;11.510;2022-08-21T02:56:07;2.50;;;0.90;;
6117;SDS011;3089;48.202;11.510;2022-08-21T02:58:37;4.40;;;1.27;;
6117;SDS011;3089;48.202;11.510;2022-08-21T03:01:08;2.40;;;0.90;;
6117;SDS011;3089;48.202;11.510;2022-08-21T03:03:38;4.23;;;0.90;;
6117;SDS011;3089;48.202;11.510;2022-08-21T03:06:09;4.20;;;1.27;;
6117;SDS011;3089;48.202;11.510;2022-08-21T03:08:39;2.30;;;0.90;;
6117;SDS011;3089;48.202;11.510;2022-08-21T03:11:07;3.03;;;0.90;;
6117;SDS011;3089;48.202;11.510;2022-08-21T03:13:36;2.20;;;0.83;;
6117;SDS011;3089;48.202;11.510;2022-08-21T03:16:06;2.60;;;1.00;;
6117;SDS011;3089;48.202;11.510;2022-08-21T03:18:36;2.43;;;1.10;;
6117;SDS011;3089;48.202;11.510;2022-08-21T03:21:05;2.40;;;0.90;;
6117;SDS011;3089;48.202;11.510;2022-08-21T03:23:33;3.13;;;1.30;;
6117;SDS011;3089;48.202;11.510;2022-08-21T03:26:02;2.27;;;0.90;;
6117;SDS011;3089;48.202;11.510;2022-08-21T03:28:30;3.10;;;1.20;;
6117;SDS011;3089;48.202;11.510;2022-08-21T03:30:58;2.33;;;1.00;;
6117;SDS011;3089;48.202;11.510;2022-08-21T03:33:26;2.37;;;1.00;;
6117;SDS011;3089;48.202;11.510;2022-08-21T03:35:57;2.20;;;0.80;;
6117;SDS011;3089;48.202;11.510;2022-08-21T03:38:31;2.40;;;1.00;;
6117;SDS011;3089;48.202;11.510;2022-08-21T03:41:00;2.70;;;1.33;;
6117;SDS011;3089;48.202;11.510;2022-08-21T03:43:28;2.70;;;1.00;;
6117;SDS011;3089;48.202;11.510;2022-08-21T03:45:58;4.50;;;1.10;;
6117;SDS011;3089;48.202;11.510;2022-08-21T03:48:27;2.77;;;1.10;;
6117;SDS011;3089;48.202;11.510;2022-08-21T03:50:56;2.40;;;1.10;;
6117;SDS011;3089;48.202;11.510;2022-08-21T03:53:25;3.30;;;1.20;;
6117;SDS011;3089;48.202;11.510;2022-08-21T03:55:53;3.40;;;1.20;;
6117;SDS011;3089;48.202;11.510;2022-08-21T03:58:22;2.70;;;1.27;;
6117;SDS011;3089;48.202;11.510;2022-08-21T04:00:52;4.70;;;1.00;;
6117;SDS011;3089;48.202;11.510;2022-08-21T04:03:23;2.73;;;1.00;;
6117;SDS011;3089;48.202;11.510;2022-08-21T04:05:52;2.70;;;1.10;;
6117;SDS011;3089;48.202;11.510;2022-08-21T04:08:21;2.80;;;1.07;;
6117;SDS011;3089;48.202;11.510;2022-08-21T04:10:50;4.07;;;1.00;;
6117;SDS011;3089;48.202;11.510;2022-08-21T04:13:19;4.07;;;1.50;;
6117;SDS011;3089;48.202;11.510;2022-08-21T04:15:47;2.60;;;1.20;;
6117;SDS011;3089;48.202;11.510;2022-08-21T04:18:16;2.80;;;1.27;;
6117;SDS011;3089;48.202;11.510;2022-08-21T04:20:44;2.73;;;1.10;;
6117;SDS011;3089;48.202;11.510;2022-08-21T04:23:16;6.43;;;1.00;;
6117;SDS011;3089;48.202;11.510;2022-08-21T04:25:51;9.00;;;1.20;;
6117;SDS011;3089;48.202;11.510;2022-08-21T04:28:20;2.53;;;1.07;;
6117;SDS011;3089;48.202;11.510;2022-08-21T04:30:54;3.80;;;1.20;;
6117;SDS011;3089;48.202;11.510;2022-08-21T04:33:23;2.60;;;1.10;;
6117;SDS011;3089;48.202;11.510;2022-08-21T04:35:51;3.13;;;1.00;;
6117;SDS011;3089;48.202;11.510;2022-08-21T04:38:19;2.57;;;1.00;;
6117;SDS011;3089;48.202;11.510;2022-08-21T04:40:48;2.60;;;1.13;;
6117;SDS011;3089;48.202;11.510;2022-08-21T04:43:17;2.90;;;1.37;;
6117;SDS011;3089;48.202;11.510;2022-08-21T04:45:47;9.30;;;1.10;;
6117;SDS011;3089;48.202;11.510;2022-08-21T04:48:17;2.50;;;0.90;;
6117;SDS011;3089;48.202;11.510;2022-08-21T04:50:48;3.00;;;1.37;;
6117;SDS011;3089;48.202;11.510;2022-08-21T04:53:20;2.60;;;1.20;;
6117;SDS011;3089;48.202;11.510;2022-08-21T04:55:49;3.87;;;1.23;;
6117;SDS011;3089;48.202;11.510;2022-08-21T04:58:21;2.97;;;1.43;;
6117;SDS011;3089;48.202;11.510;2022-08-21T05:00:51;6.43;;;1.10;;
6117;SDS011;3089;48.202;11.510;2022-08-21T05:03:20;3.40;;;1.47;;
6117;SDS011;3089;48.202;11.510;2022-08-21T05:05:48;4.33;;;1.80;;
6117;SDS011;3089;48.202;11.510;2022-08-21T05:08:18;2.70;;;1.30;;
6117;SDS011;3089;48.202;11.510;2022-08-21T05:10:49;3.17;;;1.50;;
6117;SDS011;3089;48.202;11.510;2022-08-21T05:13:23;2.60;;;1.20;;
6117;SDS011;3089;48.202;11.510;2022-08-21T05:15:51;3.17;;;1.50;;
6117;SDS011;3089;48.202;11.510;2022-08-21T05:18:19;3.10;;;1.30;;
6117;SDS011;3089;48.202;11.510;2022-08-21T05:20:47;5.33;;;1.30;;
6117;SDS011;3089;48.202;11.510;2022-08-21T05:23:15;3.60;;;1.37;;
6117;SDS011;3089;48.202;11.510;2022-08-21T05:25:43;4.10;;;1.83;;
6117;SDS011;3089;48.202;11.510;2022-08-21T05:28:11;3.20;;;1.13;;
6117;SDS011;3089;48.202;11.510;2022-08-21T05:30:41;2.67;;;1.30;;
6117;SDS011;3089;48.202;11.510;2022-08-21T05:33:08;3.67;;;1.40;;
6117;SDS011;3089;48.202;11.510;2022-08-21T05:35:37;3.20;;;1.33;;
6117;SDS011;3089;48.202;11.510;2022-08-21T05:38:05;2.77;;;1.20;;
6117;SDS011;3089;48.202;11.510;2022-08-21T05:40:43;3.00;;;1.50;;
6117;SDS011;3089;48.202;11.510;2022-08-21T05:43:11;4.10;;;1.60;;
6117;SDS011;3089;48.202;11.510;2022-08-21T05:45:41;3.70;;;1.20;;
6117;SDS011;3089;48.202;11.510;2022-08-21T05:48:10;3.10;;;1.20;;
6117;SDS011;3089;48.202;11.510;2022-08-21T05:50:39;3.27;;;1.30;;
6117;SDS011;3089;48.202;11.510;2022-08-21T05:53:07;3.93;;;1.40;;
6117;SDS011;3089;48.202;11.510;2022-08-21T05:55:37;4.17;;;1.43;;
6117;SDS011;3089;48.202;11.510;2022-08-21T05:58:11;3.80;;;1.30;;
6117;SDS011;3089;48.202;11.510;2022-08-21T06:00:40;3.37;;;1.30;;
6117;SDS011;3089;48.202;11.510;2022-08-21T06:03:12;2.90;;;1.13;;
6117;SDS011;3089;48.202;11.510;2022-08-21T06:05:43;3.57;;;1.30;;
6117;SDS011;3089;48.202;11.510;2022-08-21T06:08:11;3.00;;;1.10;;
6117;SDS011;3089;48.202;11.510;2022-08-21T06:10:40;3.30;;;0.97;;
6117;SDS011;3089;48.202;11.510;2022-08-21T06:13:08;2.70;;;1.27;;
6117;SDS011;3089;48.202;11.510;2022-08-21T06:15:36;9.30;;;1.50;;
6117;SDS011;3089;48.202;11.510;2022-08-21T06:18:06;3.53;;;1.30;;
6117;SDS011;3089;48.202;11.510;2022-08-21T06:20:34;4.80;;;1.20;;
6117;SDS011;3089;48.202;11.510;2022-08-21T06:23:02;4.77;;;1.10;;
6117;SDS011;3089;48.202;11.510;2022-08-21T06:25:30;3.47;;;1.10;;
6117;SDS011;3089;48.202;11.510;2022-08-21T06:28:02;4.20;;;1.60;;
6117;SDS011;3089;48.202;11.510;2022-08-21T06:30:32;2.77;;;1.20;;
6117;SDS011;3089;48.202;11.510;2022-08-21T06:33:01;3.27;;;1.13;;
6117;SDS011;3089;48.202;11.510;2022-08-21T06:35:30;5.07;;;1.10;;
6117;SDS011;3089;48.202;11.510;2022-08-21T06:37:59;3.50;;;1.10;;
6117;SDS011;3089;48.202;11.510;2022-08-21T06:40:27;2.57;;;1.10;;
6117;SDS011;3089;48.202;11.510;2022-08-21T06:42:57;2.77;;;1.17;;
6117;SDS011;3089;48.202;11.510;2022-08-21T06:45:31;3.47;;;1.30;;
6117;SDS011;3089;48.202;11.510;2022-08-21T06:47:59;4.20;;;1.33;;
6117;SDS011;3089;48.202;11.510;2022-08-21T06:50:27;4.33;;;1.80;;
6117;SDS011;3089;48.202;11.510;2022-08-21T06:53:02;5.50;;;1.43;;
6117;SDS011;3089;48.202;11.510;2022-08-21T06:55:31;4.73;;;1.40;;
6117;SDS011;3089;48.202;11.510;2022-08-21T06:58:00;4.47;;;1.50;;
6117;SDS011;3089;48.202;11.510;2022-08-21T07:00:28;4.27;;;1.50;;
6117;SDS011;3089;48.202;11.510;2022-08-21T07:02:56;5.83;;;1.87;;
6117;SDS011;3089;48.202;11.510;2022-08-21T07:05:25;5.70;;;1.67;;
6117;SDS011;3089;48.202;11.510;2022-08-21T07:07:54;4.73;;;1.70;;
6117;SDS011;3089;48.202;11.510;2022-08-21T07:10:24;3.93;;;1.70;;
6117;SDS011;3089;48.202;11.510;2022-08-21T07:12:52;4.80;;;1.90;;
6117;SDS011;3089;48.202;11.510;2022-08-21T07:15:26;4.27;;;1.90;;
6117;SDS011;3089;48.202;11.510;2022-08-21T07:17:55;6.33;;;1.63;;
6117;SDS011;3089;48.202;11.510;2022-08-21T07:20:24;4.10;;;1.90;;
6117;SDS011;3089;48.202;11.510;2022-08-21T07:22:52;3.20;;;1.60;;
6117;SDS011;3089;48.202;11.510;2022-08-21T07:25:20;4.20;;;1.63;;
6117;SDS011;3089;48.202;11.510;2022-08-21T07:27:49;3.80;;;1.77;;
6117;SDS011;3089;48.202;11.510;2022-08-21T07:30:17;4.50;;;1.63;;
6117;SDS011;3089;48.202;11.510;2022-08-21T07:32:45;3.30;;;1.70;;
6117;SDS011;3089;48.202;11.510;2022-08-21T07:35:15;5.63;;;1.83;;
6117;SDS011;3089;48.202;11.510;2022-08-21T07:37:43;3.00;;;1.40;;
6117;SDS011;3089;48.202;11.510;2022-08-21T07:40:12;4.27;;;1.77;;
6117;SDS011;3089;48.202;11.510;2022-08-21T07:42:40;5.40;;;1.90;;
6117;SDS011;3089;48.202;11.510;2022-08-21T07:45:10;3.90;;;2.03;;
6117;SDS011;3089;48.202;11.510;2022-08-21T07:47:38;5.10;;;1.87;;
6117;SDS011;3089;48.202;11.510;2022-08-21T07:50:08;5.20;;;2.13;;
6117;SDS011;3089;48.202;11.510;2022-08-21T07:52:38;4.53;;;2.20;;
6117;SDS011;3089;48.202;11.510;2022-08-21T07:55:08;4.50;;;2.50;;
6117;SDS011;3089;48.202;11.510;2022-08-21T07:57:36;5.57;;;2.27;;
6117;SDS011;3089;48.202;11.510;2022-08-21T08:00:05;3.43;;;1.80;;
6117;SDS011;3089;48.202;11.510;2022-08-21T08:02:37;6.43;;;2.30;;
6117;SDS011;3089;48.202;11.510;2022-08-21T08:05:07;8.87;;;2.43;;
6117;SDS011;3089;48.202;11.510;2022-08-21T08:07:38;5.07;;;2.17;;
6117;SDS011;3089;48.202;11.510;2022-08-21T08:10:07;6.07;;;2.80;;
6117;SDS011;3089;48.202;11.510;2022-08-21T08:12:36;4.10;;;2.50;;
6117;SDS011;3089;48.202;11.510;2022-08-21T08:15:07;5.20;;;2.50;;
6117;SDS011;3089;48.202;11.510;2022-08-21T08:17:38;6.13;;;2.87;;
6117;SDS011;3089;48.202;11.510;2022-08-21T08:20:06;5.40;;;2.70;;
6117;SDS011;3089;48.202;11.510;2022-08-21T08:22:36;5.37;;;2.67;;
6117;SDS011;3089;48.202;11.510;2022-08-21T08:25:06;6.10;;;2.87;;
6117;SDS011;3089;48.202;11.510;2022-08-21T08:27:35;4.30;;;2.30;;
6117;SDS011;3089;48.202;11.510;2022-08-21T08:30:03;5.10;;;2.27;;
6117;SDS011;3089;48.202;11.510;2022-08-21T08:32:32;6.10;;;2.27;;
6117;SDS011;3089;48.202;11.510;2022-08-21T08:35:02;7.30;;;3.10;;
6117;SDS011;3089;48.202;11.510;2022-08-21T08:37:31;6.00;;;3.03;;
6117;SDS011;3089;48.202;11.510;2022-08-21T08:40:00;5.93;;;3.30;;
6117;SDS011;3089;48.202;11.510;2022-08-21T08:42:31;5.60;;;2.40;;
6117;SDS011;3089;48.202;11.510;2022-08-21T08:45:03;4.90;;;2.93;;
6117;SDS011;3089;48.202;11.510;2022-08-21T08:47:33;6.87;;;2.80;;
6117;SDS011;3089;48.202;11.510;2022-08-21T08:50:05;4.67;;;2.70;;
6117;SDS011;3089;48.202;11.510;2022-08-21T08:52:39;7.43;;;3.07;;
6117;SDS011;3089;48.202;11.510;2022-08-21T08:55:11;5.67;;;2.80;;
6117;SDS011;3089;48.202;11.510;2022-08-21T08:57:43;5.63;;;2.97;;
6117;SDS011;3089;48.202;11.510;2022-08-21T09:00:16;7.20;;;3.37;;
6117;SDS011;3089;48.202;11.510;2022-08-21T09:02:46;6.40;;;3.10;;
6117;SDS011;3089;48.202;11.510;2022-08-21T09:05:20;7.73;;;3.60;;
6117;SDS011;3089;48.202;11.510;2022-08-21T09:07:53;6.00;;;3.70;;
6117;SDS011;3089;48.202;11.510;2022-08-21T09:10:46;5.87;;;3.30;;
6117;SDS011;3089;48.202;11.510;2022-08-21T09:13:21;5.00;;;3.37;;
6117;SDS011;3089;48.202;11.510;2022-08-21T09:16:03;5.93;;;3.30;;
6117;SDS011;3089;48.202;11.510;2022-08-21T09:18:54;7.43;;;3.40;;
6117;SDS011;3089;48.202;11.510;2022-08-21T09:21:32;5.43;;;3.40;;
6117;SDS011;3089;48.202;11.510;2022-08-21T09:24:16;11.57;;;2.77;;
6117;SDS011;3089;48.202;11.510;2022-08-21T09:26:53;5.70;;;3.57;;
6117;SDS011;3089;48.202;11.510;2022-08-21T09:29:28;5.37;;;3.07;;
6117;SDS011;3089;48.202;11.510;2022-08-21T09:32:00;5.20;;;2.83;;
6117;SDS011;3089;48.202;11.510;2022-08-21T09:34:29;7.80;;;3.70;;
6117;SDS011;3089;48.202;11.510;2022-08-21T09:36:59;5.90;;;3.40;;
6117;SDS011;3089;48.202;11.510;2022-08-21T09:39:29;5.10;;;3.20;;
6117;SDS011;3089;48.202;11.510;2022-08-21T09:42:07;4.97;;;2.70;;
6117;SDS011;3089;48.202;11.510;2022-08-21T09:44:36;4.60;;;2.73;;
6117;SDS011;3089;48.202;11.510;2022-08-21T09:47:09;6.50;;;3.37;;
6117;SDS011;3089;48.202;11.510;2022-08-21T09:49:40;8.73;;;3.63;;
6117;SDS011;3089;48.202;11.510;2022-08-21T09:52:15;6.13;;;3.80;;
6117;SDS011;3089;48.202;11.510;2022-08-21T09:54:46;5.00;;;3.13;;
6117;SDS011;3089;48.202;11.510;2022-08-21T09:57:25;6.40;;;3.40;;
6117;SDS011;3089;48.202;11.510;2022-08-21T10:00:15;6.87;;;2.20;;
6117;SDS011;3089;48.202;11.510;2022-08-21T10:02:51;3.90;;;2.20;;
6117;SDS011;3089;48.202;11.510;2022-08-21T10:05:20;6.50;;;3.60;;
6117;SDS011;3089;48.202;11.510;2022-08-21T10:07:51;5.10;;;3.27;;
6117;SDS011;3089;48.202;11.510;2022-08-21T10:10:20;4.97;;;3.20;;
6117;SDS011;3089;48.202;11.510;2022-08-21T10:12:53;5.10;;;3.10;;
6117;SDS011;3089;48.202;11.510;2022-08-21T10:15:32;4.70;;;2.90;;
6117;SDS011;3089;48.202;11.510;2022-08-21T10:18:08;6.70;;;3.30;;
6117;SDS011;3089;48.202;11.510;2022-08-21T10:20:44;4.80;;;2.90;;
6117;SDS011;3089;48.202;11.510;2022-08-21T10:23:25;10.20;;;3.10;;
6117;SDS011;3089;48.202;11.510;2022-08-21T10:26:02;6.10;;;3.27;;
6117;SDS011;3089;48.202;11.510;2022-08-21T10:28:40;7.97;;;3.63;;
6117;SDS011;3089;48.202;11.510;2022-08-21T10:31:21;4.00;;;2.73;;
6117;SDS011;3089;48.202;11.510;2022-08-21T10:33:58;4.63;;;2.83;;
6117;SDS011;3089;48.202;11.510;2022-08-21T10:36:35;5.20;;;2.57;;
6117;SDS011;3089;48.202;11.510;2022-08-21T10:39:11;6.10;;;2.50;;
6117;SDS011;3089;48.202;11.510;2022-08-21T10:42:06;7.57;;;3.10;;
6117;SDS011;3089;48.202;11.510;2022-08-21T10:44:46;6.90;;;2.37;;
6117;SDS011;3089;48.202;11.510;2022-08-21T10:47:23;5.40;;;2.90;;
6117;SDS011;3089;48.202;11.510;2022-08-21T10:50:02;4.07;;;2.67;;
6117;SDS011;3089;48.202;11.510;2022-08-21T10:52:45;7.63;;;2.73;;
6117;SDS011;3089;48.202;11.510;2022-08-21T10:55:31;5.50;;;2.80;;
6117;SDS011;3089;48.202;11.510;2022-08-21T10:58:01;9.43;;;3.20;;
6117;SDS011;3089;48.202;11.510;2022-08-21T11:00:33;3.73;;;1.97;;
6117;SDS011;3089;48.202;11.510;2022-08-21T11:03:07;5.57;;;2.53;;
6117;SDS011;3089;48.202;11.510;2022-08-21T11:05:41;4.93;;;3.40;;
6117;SDS011;3089;48.202;11.510;2022-08-21T11:08:18;7.30;;;2.90;;
6117;SDS011;3089;48.202;11.510;2022-08-21T11:10:53;5.30;;;3.37;;
6117;SDS011;3089;48.202;11.510;2022-08-21T11:13:27;4.60;;;2.93;;
6117;SDS011;3089;48.202;11.510;2022-08-21T11:16:04;4.80;;;2.90;;
6117;SDS011;3089;48.202;11.510;2022-08-21T11:18:37;4.63;;;2.57;;
6117;SDS011;3089;48.202;11.510;2022-08-21T11:21:20;5.20;;;2.60;;
6117;SDS011;3089;48.202;11.510;2022-08-21T11:23:59;4.67;;;2.37;;
6117;SDS011;3089;48.202;11.510;2022-08-21T11:26:34;5.40;;;2.40;;
6117;SDS011;3089;48.202;11.510;2022-08-21T11:29:08;6.17;;;2.67;;
6117;SDS011;3089;48.202;11.510;2022-08-21T11:31:45;6.70;;;2.70;;
6117;SDS011;3089;48.202;11.510;2022-08-21T11:34:21;4.80;;;2.07;;
6117;SDS011;3089;48.202;11.510;2022-08-21T11:37:01;6.27;;;2.83;;
6117;SDS011;3089;48.202;11.510;2022-08-21T11:39:35;4.23;;;2.30;;
6117;SDS011;3089;48.202;11.510;2022-08-21T11:42:16;4.20;;;2.27;;
6117;SDS011;3089;48.202;11.510;2022-08-21T11:44:54;4.83;;;2.20;;
6117;SDS011;3089;48.202;11.510;2022-08-21T11:47:30;4.50;;;2.27;;
6117;SDS011;3089;48.202;11.510;2022-08-21T11:50:12;4.60;;;2.37;;
6117;SDS011;3089;48.202;11.510;2022-08-21T11:53:02;6.00;;;2.30;;
6117;SDS011;3089;48.202;11.510;2022-08-21T11:55:36;3.90;;;2.10;;
6117;SDS011;3089;48.202;11.510;2022-08-21T11:58:11;6.00;;;2.10;;
6117;SDS011;3089;48.202;11.510;2022-08-21T12:00:47;4.13;;;2.10;;
6117;SDS011;3089;48.202;11.510;2022-08-21T12:03:22;4.57;;;2.03;;
6117;SDS011;3089;48.202;11.510;2022-08-21T12:05:53;4.90;;;2.33;;
6117;SDS011;3089;48.202;11.510;2022-08-21T12:08:29;4.80;;;1.90;;
6117;SDS011;3089;48.202;11.510;2022-08-21T12:11:00;4.00;;;1.90;;
6117;SDS011;3089;48.202;11.510;2022-08-21T12:13:33;3.80;;;1.90;;
6117;SDS011;3089;48.202;11.510;2022-08-21T12:16:07;5.27;;;2.30;;
6117;SDS011;3089;48.202;11.510;2022-08-21T12:18:36;5.23;;;2.03;;
6117;SDS011;3089;48.202;11.510;2022-08-21T12:21:16;4.30;;;1.80;;
6117;SDS011;3089;48.202;11.510;2022-08-21T12:23:49;4.80;;;2.10;;
6117;SDS011;3089;48.202;11.510;2022-08-21T12:26:31;4.13;;;2.23;;
6117;SDS011;3089;48.202;11.510;2022-08-21T12:29:05;5.30;;;2.00;;
6117;SDS011;3089;48.202;11.510;2022-08-21T12:31:47;4.80;;;2.20;;
6117;SDS011;3089;48.202;11.510;2022-08-21T12:34:20;3.70;;;1.93;;
6117;SDS011;3089;48.202;11.510;2022-08-21T12:36:53;5.33;;;2.13;;
6117;SDS011;3089;48.202;11.510;2022-08-21T12:39:25;3.70;;;1.93;;
6117;SDS011;3089;48.202;11.510;2022-08-21T12:41:58;5.00;;;2.10;;
6117;SDS011;3089;48.202;11.510;2022-08-21T12:44:32;11.50;;;1.80;;
6117;SDS011;3089;48.202;11.510;2022-08-21T12:47:05;10.13;;;2.60;;
6117;SDS011;3089;48.202;11.510;2022-08-21T12:49:43;3.60;;;1.70;;
6117;SDS011;3089;48.202;11.510;2022-08-21T12:52:20;4.17;;;2.17;;
6117;SDS011;3089;48.202;11.510;2022-08-21T12:54:50;10.07;;;1.90;;
6117;SDS011;3089;48.202;11.510;2022-08-21T12:57:19;6.40;;;2.50;;
6117;SDS011;3089;48.202;11.510;2022-08-21T12:59:53;3.93;;;1.80;;
6117;SDS011;3089;48.202;11.510;2022-08-21T13:02:22;5.13;;;1.87;;
6117;SDS011;3089;48.202;11.510;2022-08-21T13:04:53;4.23;;;1.70;;
6117;SDS011;3089;48.202;11.510;2022-08-21T13:07:24;8.70;;;2.00;;
6117;SDS011;3089;48.202;11.510;2022-08-21T13:09:57;7.03;;;2.23;;
6117;SDS011;3089;48.202;11.510;2022-08-21T13:12:27;4.40;;;2.10;;
6117;SDS011;3089;48.202;11.510;2022-08-21T13:15:00;5.17;;;1.87;;
6117;SDS011;3089;48.202;11.510;2022-08-21T13:17:35;4.23;;;1.93;;
6117;SDS011;3089;48.202;11.510;2022-08-21T13:20:07;7.27;;;1.93;;
6117;SDS011;3089;48.202;11.510;2022-08-21T13:22:40;3.70;;;1.50;;
6117;SDS011;3089;48.202;11.510;2022-08-21T13:25:10;7.43;;;2.07;;
6117;SDS011;3089;48.202;11.510;2022-08-21T13:27:39;4.20;;;1.97;;
6117;SDS011;3089;48.202;11.510;2022-08-21T13:30:10;4.00;;;1.83;;
6117;SDS011;3089;48.202;11.510;2022-08-21T13:32:41;5.17;;;2.10;;
6117;SDS011;3089;48.202;11.510;2022-08-21T13:35:12;5.27;;;2.10;;
6117;SDS011;3089;48.202;11.510;2022-08-21T13:37:44;3.90;;;2.10;;
6117;SDS011;3089;48.202;11.510;2022-08-21T13:40:15;3.73;;;1.77;;
6117;SDS011;3089;48.202;11.510;2022-08-21T13:42:46;4.20;;;1.80;;
6117;SDS011;3089;48.202;11.510;2022-08-21T13:45:18;6.53;;;2.00;;
6117;SDS011;3089;48.202;11.510;2022-08-21T13:47:50;3.10;;;1.30;;
6117;SDS011;3089;48.202;11.510;2022-08-21T13:50:20;3.80;;;1.77;;
6117;SDS011;3089;48.202;11.510;2022-08-21T13:52:58;4.60;;;2.03;;
6117;SDS011;3089;48.202;11.510;2022-08-21T13:55:34;4.57;;;1.80;;
6117;SDS011;3089;48.202;11.510;2022-08-21T13:58:05;6.00;;;1.70;;
6117;SDS011;3089;48.202;11.510;2022-08-21T14:00:35;3.73;;;1.77;;
6117;SDS011;3089;48.202;11.510;2022-08-21T14:03:12;4.53;;;2.20;;
6117;SDS011;3089;48.202;11.510;2022-08-21T14:05:52;4.20;;;1.87;;
6117;SDS011;3089;48.202;11.510;2022-08-21T14:08:23;4.03;;;1.70;;
6117;SDS011;3089;48.202;11.510;2022-08-21T14:10:55;4.60;;;2.00;;
6117;SDS011;3089;48.202;11.510;2022-08-21T14:13:33;4.17;;;1.87;;
6117;SDS011;3089;48.202;11.510;2022-08-21T14:16:10;5.13;;;2.00;;
6117;SDS011;3089;48.202;11.510;2022-08-21T14:18:45;4.33;;;1.93;;
6117;SDS011;3089;48.202;11.510;2022-08-21T14:21:27;3.80;;;2.00;;
6117;SDS011;3089;48.202;11.510;2022-08-21T14:24:05;5.13;;;2.10;;
6117;SDS011;3089;48.202;11.510;2022-08-21T14:26:36;3.47;;;1.90;;
6117;SDS011;3089;48.202;11.510;2022-08-21T14:29:11;6.70;;;2.17;;
6117;SDS011;3089;48.202;11.510;2022-08-21T14:31:43;5.80;;;1.90;;
6117;SDS011;3089;48.202;11.510;2022-08-21T14:34:16;3.30;;;1.73;;
6117;SDS011;3089;48.202;11.510;2022-08-21T14:36:45;4.30;;;1.70;;
6117;SDS011;3089;48.202;11.510;2022-08-21T14:39:14;6.17;;;1.73;;
6117;SDS011;3089;48.202;11.510;2022-08-21T14:41:42;5.37;;;2.00;;
6117;SDS011;3089;48.202;11.510;2022-08-21T14:44:12;5.50;;;2.37;;
6117;SDS011;3089;48.202;11.510;2022-08-21T14:46:41;5.30;;;2.00;;
6117;SDS011;3089;48.202;11.510;2022-08-21T14:49:21;3.83;;;2.07;;
6117;SDS011;3089;48.202;11.510;2022-08-21T14:51:49;4.70;;;1.90;;
6117;SDS011;3089;48.202;11.510;2022-08-21T14:54:22;5.77;;;2.50;;
6117;SDS011;3089;48.202;11.510;2022-08-21T14:56:57;6.73;;;2.17;;
6117;SDS011;3089;48.202;11.510;2022-08-21T14:59:27;4.80;;;1.83;;
6117;SDS011;3089;48.202;11.510;2022-08-21T15:01:57;4.60;;;2.23;;
6117;SDS011;3089;48.202;11.510;2022-08-21T15:04:25;4.80;;;2.70;;
6117;SDS011;3089;48.202;11.510;2022-08-21T15:06:53;6.97;;;2.70;;
6117;SDS011;3089;48.202;11.510;2022-08-21T15:09:21;3.53;;;1.80;;
6117;SDS011;3089;48.202;11.510;2022-08-21T15:11:49;5.30;;;2.20;;
6117;SDS011;3089;48.202;11.510;2022-08-21T15:14:25;5.40;;;2.40;;
6117;SDS011;3089;48.202;11.510;2022-08-21T15:16:55;4.37;;;2.03;;
6117;SDS011;3089;48.202;11.510;2022-08-21T15:19:25;5.10;;;1.80;;
6117;SDS011;3089;48.202;11.510;2022-08-21T15:21:55;7.03;;;2.13;;
6117;SDS011;3089;48.202;11.510;2022-08-21T15:24:23;5.30;;;2.20;;
6117;SDS011;3089;48.202;11.510;2022-08-21T15:26:51;4.40;;;2.10;;